createdAt,value
2023-03-31T00:02:13.309Z,11.90
2023-03-31T00:04:45.937Z,12.00
2023-03-31T00:07:14.766Z,12.10
2023-03-31T00:09:45.849Z,12.20
2023-03-31T00:12:14.566Z,12.20
2023-03-31T00:14:41.662Z,12.30
2023-03-31T00:17:09.872Z,12.30
2023-03-31T00:19:37.127Z,12.30
2023-03-31T00:22:05.232Z,12.30
2023-03-31T00:24:33.049Z,12.30
2023-03-31T00:27:01.070Z,12.30
2023-03-31T00:29:28.236Z,12.30
2023-03-31T00:31:55.457Z,12.20
2023-03-31T00:34:22.141Z,12.20
2023-03-31T00:36:48.854Z,12.10
2023-03-31T00:39:18.323Z,12.00
2023-03-31T00:41:45.384Z,12.00
2023-03-31T00:44:13.580Z,12.00
2023-03-31T00:47:04.670Z,12.00
2023-03-31T00:49:45.521Z,12.00
2023-03-31T00:52:23.467Z,12.10
2023-03-31T00:55:00.626Z,12.00
2023-03-31T00:57:29.058Z,12.00
2023-03-31T01:00:16.854Z,12.00
2023-03-31T01:02:51.515Z,11.90
2023-03-31T01:05:21.458Z,11.90
2023-03-31T01:07:50.612Z,11.80
2023-03-31T01:10:17.947Z,11.50
2023-03-31T01:12:48.709Z,11.50
2023-03-31T01:15:15.657Z,11.40
2023-03-31T01:17:47.475Z,11.20
2023-03-31T01:20:23.214Z,11.30
2023-03-31T01:23:11.814Z,11.20
2023-03-31T01:26:16.236Z,11.10
2023-03-31T01:29:05.982Z,11.00
2023-03-31T01:32:24.125Z,11.10
2023-03-31T01:35:19.524Z,11.10
2023-03-31T01:37:52.028Z,11.20
2023-03-31T01:40:50.541Z,11.20
2023-03-31T01:43:26.398Z,11.20
2023-03-31T01:46:14.620Z,11.20
2023-03-31T01:49:11.661Z,11.20
2023-03-31T01:51:47.444Z,11.20
2023-03-31T01:54:22.474Z,11.20
2023-03-31T01:56:58.335Z,11.10
2023-03-31T01:59:34.466Z,11.10
2023-03-31T02:02:08.962Z,11.10
2023-03-31T02:04:42.372Z,11.10
2023-03-31T02:07:29.695Z,11.10
2023-03-31T02:10:01.655Z,11.00
2023-03-31T02:12:32.459Z,11.00
2023-03-31T02:15:03.426Z,11.10
2023-03-31T02:17:30.650Z,11.10
2023-03-31T02:19:59.832Z,11.10
2023-03-31T02:22:31.320Z,11.20
2023-03-31T02:25:01.152Z,11.20
2023-03-31T02:27:37.433Z,11.20
2023-03-31T02:30:05.111Z,11.20
2023-03-31T02:32:37.623Z,11.20
2023-03-31T02:35:07.013Z,11.20
2023-03-31T02:37:34.088Z,11.10
2023-03-31T02:40:06.388Z,11.10
2023-03-31T02:42:33.159Z,11.10
2023-03-31T02:45:06.120Z,11.20
2023-03-31T02:47:33.558Z,11.20
2023-03-31T02:50:02.707Z,11.30
2023-03-31T02:52:50.526Z,11.10
2023-03-31T02:55:37.548Z,11.00
2023-03-31T02:58:18.153Z,11.00
2023-03-31T03:01:07.482Z,11.10
2023-03-31T03:03:49.638Z,11.10
2023-03-31T03:06:39.294Z,11.10
2023-03-31T03:09:15.216Z,11.20
2023-03-31T03:12:03.796Z,11.10
2023-03-31T03:14:56.037Z,11.10
2023-03-31T03:17:30.261Z,11.10
2023-03-31T03:20:00.603Z,11.10
2023-03-31T03:22:27.823Z,11.20
2023-03-31T03:24:54.515Z,11.20
2023-03-31T03:27:24.514Z,11.20
2023-03-31T03:29:51.375Z,11.80
2023-03-31T03:32:18.242Z,11.30
2023-03-31T03:34:44.935Z,11.30
2023-03-31T03:37:11.640Z,11.30
2023-03-31T03:39:38.267Z,11.20
2023-03-31T03:42:05.294Z,11.30
2023-03-31T03:44:31.949Z,11.30
2023-03-31T03:46:58.606Z,11.30
2023-03-31T03:49:25.267Z,11.30
2023-03-31T03:51:51.901Z,11.30
2023-03-31T03:54:18.785Z,11.40
2023-03-31T03:56:45.642Z,11.40
2023-03-31T03:59:12.472Z,11.30
2023-03-31T04:01:39.365Z,11.40
2023-03-31T04:04:06.232Z,11.50
2023-03-31T04:06:32.895Z,11.40
2023-03-31T04:08:59.704Z,11.40
2023-03-31T04:11:26.491Z,12.00
2023-03-31T04:13:53.182Z,11.50
2023-03-31T04:16:20.538Z,11.50
2023-03-31T04:18:48.770Z,11.50
2023-03-31T04:21:22.852Z,11.50
2023-03-31T04:23:58.927Z,11.50
2023-03-31T04:26:38.927Z,11.50
2023-03-31T04:29:12.933Z,11.50
2023-03-31T04:31:42.887Z,11.50
2023-03-31T04:34:14.148Z,11.40
2023-03-31T04:36:50.517Z,11.40
2023-03-31T04:39:26.628Z,11.40
2023-03-31T04:41:54.091Z,11.50
2023-03-31T04:44:20.742Z,11.50
2023-03-31T04:46:47.386Z,11.50
2023-03-31T04:49:14.087Z,11.60
2023-03-31T04:51:41.022Z,11.70
2023-03-31T04:54:07.732Z,11.70
2023-03-31T04:56:34.445Z,11.70
2023-03-31T04:59:01.159Z,11.80
2023-03-31T05:01:27.888Z,11.70
2023-03-31T05:03:54.540Z,11.70
2023-03-31T05:06:21.128Z,11.60
2023-03-31T05:08:47.757Z,11.60
2023-03-31T05:11:14.379Z,11.50
2023-03-31T05:13:41.273Z,11.50
2023-03-31T05:16:09.799Z,11.40
2023-03-31T05:18:36.818Z,11.30
2023-03-31T05:21:14.152Z,11.20
2023-03-31T05:23:40.962Z,11.30
2023-03-31T05:26:08.673Z,11.30
2023-03-31T05:28:36.166Z,11.20
2023-03-31T05:31:04.454Z,11.10
2023-03-31T05:33:31.406Z,11.20
2023-03-31T05:36:00.278Z,11.20
2023-03-31T05:38:31.676Z,11.10
2023-03-31T05:40:58.450Z,11.10
2023-03-31T05:43:25.265Z,11.10
2023-03-31T05:45:52.045Z,11.10
2023-03-31T05:48:18.854Z,11.00
2023-03-31T05:50:45.702Z,11.00
2023-03-31T05:53:12.318Z,11.20
2023-03-31T05:55:39.383Z,11.00
2023-03-31T05:58:06.833Z,11.00
2023-03-31T06:00:33.693Z,11.00
2023-03-31T06:03:00.419Z,11.00
2023-03-31T06:05:27.634Z,11.00
2023-03-31T06:07:54.258Z,10.90
2023-03-31T06:10:20.881Z,10.90
2023-03-31T06:12:47.521Z,10.90
2023-03-31T06:15:14.219Z,10.80
2023-03-31T06:17:41.094Z,10.80
2023-03-31T06:20:24.087Z,10.70
2023-03-31T06:22:53.513Z,10.70
2023-03-31T06:25:20.207Z,10.60
2023-03-31T06:27:46.843Z,10.60
2023-03-31T06:30:13.649Z,10.70
2023-03-31T06:32:40.474Z,10.60
2023-03-31T06:35:07.433Z,10.60
2023-03-31T06:37:34.059Z,10.60
2023-03-31T06:40:00.798Z,10.70
2023-03-31T06:42:27.407Z,10.70
2023-03-31T06:44:55.861Z,10.80
2023-03-31T06:47:22.658Z,10.80
2023-03-31T06:49:49.627Z,10.80
2023-03-31T06:52:16.464Z,10.80
2023-03-31T06:54:43.267Z,10.80
2023-03-31T06:57:10.031Z,10.80
2023-03-31T06:59:36.770Z,10.80
2023-03-31T07:02:03.717Z,10.80
2023-03-31T07:04:30.436Z,10.90
2023-03-31T07:06:59.275Z,10.90
2023-03-31T07:09:25.985Z,10.90
2023-03-31T07:11:52.730Z,10.90
2023-03-31T07:14:19.401Z,10.90
2023-03-31T07:16:46.177Z,10.90
2023-03-31T07:19:13.461Z,10.90
2023-03-31T07:21:40.076Z,10.90
2023-03-31T07:24:07.058Z,11.00
2023-03-31T07:26:33.966Z,11.00
2023-03-31T07:29:00.655Z,11.00
2023-03-31T07:31:27.526Z,11.00
2023-03-31T07:33:54.141Z,11.00
2023-03-31T07:36:21.615Z,11.00
2023-03-31T07:38:49.630Z,10.90
2023-03-31T07:41:19.010Z,10.90
2023-03-31T07:43:46.510Z,10.90
2023-03-31T07:46:18.975Z,11.10
2023-03-31T07:48:47.123Z,11.10
2023-03-31T07:51:16.413Z,11.20
2023-03-31T07:53:43.197Z,11.30
2023-03-31T07:56:09.997Z,11.30
2023-03-31T07:58:36.631Z,11.50
2023-03-31T08:01:03.905Z,11.60
2023-03-31T08:03:32.014Z,11.80
2023-03-31T08:05:58.859Z,12.00
2023-03-31T08:08:26.208Z,12.70
2023-03-31T08:10:53.176Z,14.00
2023-03-31T08:13:19.938Z,15.50
2023-03-31T08:15:46.753Z,15.20
2023-03-31T08:18:13.466Z,14.70
2023-03-31T08:20:40.088Z,14.30
2023-03-31T08:23:09.156Z,14.20
2023-03-31T08:25:35.826Z,14.20
2023-03-31T08:28:02.478Z,14.10
2023-03-31T08:30:29.129Z,14.00
2023-03-31T08:32:56.530Z,13.80
2023-03-31T08:35:23.204Z,13.70
2023-03-31T08:37:49.773Z,13.50
2023-03-31T08:40:21.325Z,13.30
2023-03-31T08:42:53.549Z,13.20
2023-03-31T08:45:24.913Z,13.00
2023-03-31T08:48:07.939Z,12.90
2023-03-31T08:50:36.745Z,12.80
2023-03-31T08:53:08.004Z,13.50
2023-03-31T08:55:48.439Z,15.50
2023-03-31T08:58:17.756Z,17.30
2023-03-31T09:00:54.383Z,19.20
2023-03-31T09:03:37.553Z,20.80
2023-03-31T09:06:30.719Z,21.20
2023-03-31T09:09:02.305Z,20.20
2023-03-31T09:11:55.063Z,18.40
2023-03-31T09:14:47.318Z,16.60
2023-03-31T09:17:38.910Z,15.40
2023-03-31T09:20:13.380Z,14.70
2023-03-31T09:22:48.804Z,14.40
2023-03-31T09:25:23.522Z,14.10
2023-03-31T09:27:53.121Z,13.80
2023-03-31T09:30:26.306Z,13.60
2023-03-31T09:33:04.726Z,13.80
2023-03-31T09:35:33.583Z,13.90
2023-03-31T09:38:00.351Z,13.90
2023-03-31T09:40:28.358Z,14.00
2023-03-31T09:43:00.362Z,14.00
2023-03-31T09:45:27.623Z,14.00
2023-03-31T09:47:56.988Z,13.90
2023-03-31T09:50:25.106Z,13.90
2023-03-31T09:53:00.738Z,13.80
2023-03-31T09:55:52.458Z,13.70
2023-03-31T09:58:20.809Z,13.50
2023-03-31T10:01:06.466Z,13.40
2023-03-31T10:03:36.960Z,13.30
2023-03-31T10:06:11.002Z,13.30
2023-03-31T10:09:07.148Z,13.10
2023-03-31T10:11:33.995Z,13.20
2023-03-31T10:14:15.664Z,13.20
2023-03-31T10:16:48.484Z,13.10
2023-03-31T10:19:23.977Z,13.10
2023-03-31T10:21:59.423Z,13.10
2023-03-31T10:24:27.728Z,13.10
2023-03-31T10:26:57.079Z,13.00
2023-03-31T10:29:31.979Z,12.70
2023-03-31T10:32:22.140Z,12.50
2023-03-31T10:34:49.102Z,12.40
2023-03-31T10:37:22.470Z,12.30
2023-03-31T10:40:01.797Z,12.40
2023-03-31T10:42:28.880Z,12.50
2023-03-31T10:45:37.406Z,12.50
2023-03-31T10:48:05.095Z,12.70
2023-03-31T10:50:35.133Z,12.90
2023-03-31T10:53:17.036Z,13.20
2023-03-31T10:55:57.073Z,13.40
2023-03-31T10:58:54.989Z,13.60
2023-03-31T11:01:53.954Z,13.70
2023-03-31T11:04:39.479Z,13.90
2023-03-31T11:07:17.392Z,14.30
2023-03-31T11:10:11.626Z,14.90
2023-03-31T11:12:56.873Z,15.30
2023-03-31T11:15:51.363Z,15.60
2023-03-31T11:18:55.875Z,16.10
2023-03-31T11:21:53.318Z,16.60
2023-03-31T11:24:32.829Z,17.20
2023-03-31T11:27:24.078Z,17.90
2023-03-31T11:30:15.434Z,18.00
2023-03-31T11:33:00.675Z,17.90
2023-03-31T11:35:46.289Z,17.60
2023-03-31T11:38:34.414Z,17.10
2023-03-31T11:41:21.476Z,17.20
2023-03-31T11:44:00.757Z,17.50
2023-03-31T11:46:48.222Z,17.70
2023-03-31T11:49:19.002Z,17.90
2023-03-31T11:52:02.392Z,17.90
2023-03-31T11:54:39.029Z,17.60
2023-03-31T11:57:14.693Z,17.10
2023-03-31T11:59:44.136Z,16.80
2023-03-31T12:02:30.113Z,16.50
2023-03-31T12:04:58.309Z,16.30
2023-03-31T12:07:45.734Z,16.00
2023-03-31T12:10:22.056Z,16.00
2023-03-31T12:13:16.527Z,16.00
2023-03-31T12:15:47.703Z,16.40
2023-03-31T12:18:22.576Z,16.70
2023-03-31T12:20:56.315Z,16.80
2023-03-31T12:23:27.151Z,16.70
2023-03-31T12:26:31.557Z,16.40
2023-03-31T12:29:03.247Z,15.90
2023-03-31T12:31:33.106Z,16.00
2023-03-31T12:34:05.095Z,16.60
2023-03-31T12:36:57.312Z,17.00
2023-03-31T12:39:39.859Z,17.50
2023-03-31T12:42:25.212Z,17.70
2023-03-31T12:45:21.695Z,17.60
2023-03-31T12:48:19.087Z,17.60
2023-03-31T12:51:17.575Z,17.70
2023-03-31T12:53:57.325Z,17.60
2023-03-31T12:56:25.002Z,17.70
2023-03-31T12:58:51.616Z,18.00
2023-03-31T13:01:22.713Z,18.10
2023-03-31T13:04:11.133Z,18.30
2023-03-31T13:06:37.860Z,18.10
2023-03-31T13:09:33.414Z,18.20
2023-03-31T13:12:08.219Z,18.10
2023-03-31T13:14:40.217Z,17.30
2023-03-31T13:17:21.523Z,16.70
2023-03-31T13:19:48.881Z,16.90
2023-03-31T13:22:34.843Z,16.30
2023-03-31T13:25:44.080Z,15.80
2023-03-31T13:28:13.757Z,15.20
2023-03-31T13:30:40.383Z,14.60
2023-03-31T13:33:12.878Z,14.20
2023-03-31T13:35:42.662Z,13.90
2023-03-31T13:38:12.029Z,13.90
2023-03-31T13:41:06.668Z,13.80
2023-03-31T13:44:10.740Z,13.70
2023-03-31T13:46:51.193Z,13.70
2023-03-31T13:49:36.525Z,13.60
2023-03-31T13:52:05.367Z,13.60
2023-03-31T13:54:50.515Z,13.70
2023-03-31T13:57:38.331Z,13.80
2023-03-31T14:00:58.973Z,13.90
2023-03-31T14:03:44.398Z,14.20
2023-03-31T14:06:36.096Z,14.50
2023-03-31T14:09:15.881Z,14.90
2023-03-31T14:11:42.548Z,15.40
2023-03-31T14:14:13.469Z,15.80
2023-03-31T14:16:50.981Z,16.30
2023-03-31T14:19:17.556Z,16.50
2023-03-31T14:21:54.931Z,16.50
2023-03-31T14:24:46.157Z,16.40
2023-03-31T14:27:30.811Z,16.20
2023-03-31T14:30:27.082Z,16.20
2023-03-31T14:33:19.094Z,16.30
2023-03-31T14:36:10.839Z,16.50
2023-03-31T14:38:37.719Z,16.20
2023-03-31T14:41:04.675Z,15.80
2023-03-31T14:43:40.002Z,15.60
2023-03-31T14:46:09.089Z,15.40
2023-03-31T14:48:45.086Z,15.30
2023-03-31T14:51:14.377Z,15.00
2023-03-31T14:53:41.246Z,14.80
2023-03-31T14:56:12.302Z,14.60
2023-03-31T14:58:51.564Z,14.50
2023-03-31T15:01:25.305Z,14.40
2023-03-31T15:03:53.809Z,14.30
2023-03-31T15:06:20.773Z,14.10
2023-03-31T15:08:47.695Z,13.80
2023-03-31T15:11:20.799Z,13.60
2023-03-31T15:14:03.588Z,13.60
2023-03-31T15:16:36.458Z,13.50
2023-03-31T15:19:11.736Z,13.50
2023-03-31T15:21:39.097Z,13.50
2023-03-31T15:24:06.677Z,13.60
2023-03-31T15:26:42.099Z,13.70
2023-03-31T15:29:22.264Z,14.00
2023-03-31T15:31:49.446Z,14.30
2023-03-31T15:34:28.185Z,14.60
2023-03-31T15:36:58.208Z,14.80
2023-03-31T15:39:32.284Z,14.90
2023-03-31T15:42:02.467Z,14.80
2023-03-31T15:44:48.405Z,14.70
2023-03-31T15:47:20.379Z,14.70
2023-03-31T15:49:57.029Z,14.50
2023-03-31T15:52:36.654Z,14.30
2023-03-31T15:55:25.525Z,14.20
2023-03-31T15:57:54.182Z,14.00
2023-03-31T16:00:39.779Z,13.90
2023-03-31T16:03:15.484Z,13.80
2023-03-31T16:05:55.817Z,13.60
2023-03-31T16:08:32.534Z,13.30
2023-03-31T16:11:04.406Z,13.20
2023-03-31T16:13:33.035Z,13.20
2023-03-31T16:16:00.175Z,13.10
2023-03-31T16:18:42.494Z,13.00
2023-03-31T16:21:09.861Z,12.80
2023-03-31T16:23:41.160Z,12.80
2023-03-31T16:26:08.640Z,12.60
2023-03-31T16:28:37.297Z,12.50
2023-03-31T16:31:05.905Z,12.40
2023-03-31T16:33:54.232Z,12.20
2023-03-31T16:36:21.040Z,12.10
2023-03-31T16:38:47.689Z,12.10
2023-03-31T16:41:17.470Z,12.10
2023-03-31T16:43:45.592Z,12.10
2023-03-31T16:46:12.391Z,12.10
2023-03-31T16:48:39.180Z,12.00
2023-03-31T16:51:05.824Z,11.90
2023-03-31T16:53:34.477Z,11.90
2023-03-31T16:56:01.969Z,11.90
2023-03-31T16:58:29.374Z,12.00
2023-03-31T17:00:57.165Z,11.90
2023-03-31T17:03:25.002Z,12.00
2023-03-31T17:05:58.604Z,11.90
2023-03-31T17:08:27.790Z,12.00
2023-03-31T17:11:03.421Z,12.00
2023-03-31T17:13:32.432Z,12.00
2023-03-31T17:16:13.203Z,12.00
2023-03-31T17:18:45.938Z,12.00
2023-03-31T17:21:15.009Z,12.00
2023-03-31T17:23:42.559Z,12.10
2023-03-31T17:26:10.542Z,12.10
2023-03-31T17:28:37.579Z,12.10
2023-03-31T17:31:12.608Z,12.10
2023-03-31T17:33:40.038Z,12.20
2023-03-31T17:36:07.035Z,12.30
2023-03-31T17:38:34.593Z,12.30
2023-03-31T17:41:09.241Z,12.30
2023-03-31T17:43:36.239Z,12.30
2023-03-31T17:46:09.891Z,12.40
2023-03-31T17:48:38.592Z,12.40
2023-03-31T17:51:07.702Z,12.40
2023-03-31T17:53:35.667Z,12.40
2023-03-31T17:56:04.240Z,12.40
2023-03-31T17:58:33.605Z,12.40
2023-03-31T18:01:00.595Z,12.40
2023-03-31T18:03:30.584Z,12.40
2023-03-31T18:06:02.117Z,12.30
2023-03-31T18:08:30.010Z,12.30
2023-03-31T18:10:56.735Z,12.30
2023-03-31T18:13:24.256Z,12.20
2023-03-31T18:15:52.871Z,12.20
2023-03-31T18:18:20.646Z,12.10
2023-03-31T18:20:47.484Z,12.10
2023-03-31T18:23:14.830Z,12.10
2023-03-31T18:25:47.768Z,12.00
2023-03-31T18:28:16.153Z,12.00
2023-03-31T18:30:43.551Z,11.90
2023-03-31T18:33:11.048Z,11.90
2023-03-31T18:35:38.149Z,11.80
2023-03-31T18:38:05.499Z,11.70
2023-03-31T18:40:32.292Z,11.70
2023-03-31T18:42:59.251Z,11.60
2023-03-31T18:45:28.005Z,11.60
2023-03-31T18:47:54.869Z,11.60
2023-03-31T18:50:23.243Z,11.60
2023-03-31T18:52:53.270Z,11.50
2023-03-31T18:55:20.838Z,11.60
2023-03-31T18:57:47.690Z,11.50
2023-03-31T19:00:14.918Z,11.50
2023-03-31T19:02:41.969Z,11.50
2023-03-31T19:05:09.227Z,11.60
2023-03-31T19:07:35.897Z,11.60
2023-03-31T19:10:02.613Z,11.50
2023-03-31T19:12:29.275Z,11.50
2023-03-31T19:14:56.032Z,11.50
2023-03-31T19:17:22.763Z,11.50
2023-03-31T19:19:50.197Z,11.50
2023-03-31T19:22:17.214Z,11.50
2023-03-31T19:24:45.173Z,11.50
2023-03-31T19:27:12.677Z,11.50
2023-03-31T19:29:39.366Z,11.50
2023-03-31T19:32:06.274Z,11.40
2023-03-31T19:34:33.756Z,11.40
2023-03-31T19:37:01.960Z,11.40
2023-03-31T19:39:28.655Z,11.40
2023-03-31T19:41:55.657Z,11.40
2023-03-31T19:44:22.285Z,11.40
2023-03-31T19:46:48.996Z,11.40
2023-03-31T19:49:15.750Z,11.30
2023-03-31T19:51:42.497Z,11.30
2023-03-31T19:54:10.837Z,11.30
2023-03-31T19:56:38.193Z,11.30
2023-03-31T19:59:05.443Z,11.30
2023-03-31T20:01:32.984Z,11.20
2023-03-31T20:04:00.258Z,11.30
2023-03-31T20:06:29.727Z,11.20
2023-03-31T20:08:59.333Z,11.30
2023-03-31T20:11:27.904Z,11.30
2023-03-31T20:13:54.984Z,11.30
2023-03-31T20:16:24.422Z,11.40
2023-03-31T20:18:53.930Z,11.40
2023-03-31T20:21:22.633Z,11.40
2023-03-31T20:23:49.493Z,11.40
2023-03-31T20:26:18.670Z,11.40
2023-03-31T20:28:46.677Z,11.40
2023-03-31T20:31:22.415Z,11.40
2023-03-31T20:33:49.295Z,11.40
2023-03-31T20:36:18.715Z,11.40
2023-03-31T20:38:48.238Z,11.40
2023-03-31T20:41:15.704Z,11.50
2023-03-31T20:43:42.484Z,11.40
2023-03-31T20:46:09.695Z,11.30
2023-03-31T20:48:42.238Z,11.30
2023-03-31T20:51:11.533Z,11.30
2023-03-31T20:53:42.109Z,11.30
2023-03-31T20:56:17.379Z,11.10
2023-03-31T20:58:44.834Z,11.10
2023-03-31T21:01:12.424Z,11.00
2023-03-31T21:03:39.651Z,11.00
2023-03-31T21:06:11.626Z,11.00
2023-03-31T21:08:39.641Z,11.00
2023-03-31T21:11:07.265Z,11.00
2023-03-31T21:13:34.574Z,11.00
2023-03-31T21:16:01.570Z,11.00
2023-03-31T21:18:33.152Z,11.10
2023-03-31T21:21:05.912Z,11.10
2023-03-31T21:23:32.655Z,11.10
2023-03-31T21:26:01.633Z,11.10
2023-03-31T21:28:30.922Z,11.10
2023-03-31T21:31:06.314Z,11.10
2023-03-31T21:33:34.009Z,11.10
2023-03-31T21:36:01.163Z,11.10
2023-03-31T21:38:28.579Z,11.10
2023-03-31T21:40:57.890Z,11.10
2023-03-31T21:43:25.951Z,11.10
2023-03-31T21:45:57.107Z,11.10
2023-03-31T21:48:26.233Z,11.20
2023-03-31T21:50:54.788Z,11.20
2023-03-31T21:53:22.839Z,11.20
2023-03-31T21:55:53.488Z,11.20
2023-03-31T21:58:20.115Z,11.20
2023-03-31T22:00:47.577Z,11.20
2023-03-31T22:03:26.422Z,11.20
2023-03-31T22:05:58.610Z,11.20
2023-03-31T22:08:27.038Z,11.20
2023-03-31T22:10:54.930Z,11.20
2023-03-31T22:13:23.045Z,11.20
2023-03-31T22:15:49.706Z,11.30
2023-03-31T22:18:19.609Z,11.30
2023-03-31T22:20:46.628Z,11.20
2023-03-31T22:23:13.324Z,11.30
2023-03-31T22:25:39.955Z,11.20
2023-03-31T22:28:07.492Z,11.20
2023-03-31T22:30:34.665Z,11.20
2023-03-31T22:33:01.899Z,11.20
2023-03-31T22:35:29.073Z,11.10
2023-03-31T22:37:55.786Z,11.10
2023-03-31T22:40:23.687Z,11.10
2023-03-31T22:42:50.495Z,11.10
2023-03-31T22:45:17.265Z,11.10
2023-03-31T22:47:44.061Z,11.10
2023-03-31T22:50:11.215Z,11.10
2023-03-31T22:52:38.080Z,11.10
2023-03-31T22:55:06.148Z,11.10
2023-03-31T22:57:33.614Z,11.10
2023-03-31T23:00:00.661Z,11.10
2023-03-31T23:02:27.371Z,11.10
2023-03-31T23:04:54.040Z,11.10
2023-03-31T23:07:21.873Z,11.10
2023-03-31T23:09:48.773Z,11.10
2023-03-31T23:12:15.889Z,11.10
2023-03-31T23:14:42.571Z,11.10
2023-03-31T23:17:09.237Z,11.00
2023-03-31T23:19:37.730Z,11.10
2023-03-31T23:22:04.384Z,11.10
2023-03-31T23:24:30.997Z,11.00
2023-03-31T23:26:57.692Z,11.00
2023-03-31T23:29:24.339Z,11.00
2023-03-31T23:31:51.407Z,11.10
2023-03-31T23:34:18.074Z,11.10
2023-03-31T23:36:44.699Z,11.00
2023-03-31T23:39:11.333Z,11.00
2023-03-31T23:41:38.095Z,11.00
2023-03-31T23:44:05.234Z,11.00
2023-03-31T23:46:33.476Z,11.00
2023-03-31T23:49:02.537Z,11.00
2023-03-31T23:51:29.142Z,11.00
2023-03-31T23:53:55.843Z,10.90
2023-03-31T23:56:22.602Z,10.90
2023-03-31T23:58:49.220Z,11.00
